Time,TemperatureF,DewpointF,PressureIn,WindDirection,WindDirectionDegrees,WindSpeedMPH,WindSpeedGustMPH,Humidity,HourlyPrecipIn,Conditions,Clouds,dailyrainin,SoftwareType,DateUTC
2017-05-29 00:04:00,58.6,58.1,29.96,NE,45,11.0,11.0,98,0.00,,,0.00,meteohub,2017-05-28 23:04:00,
2017-05-29 00:09:00,58.5,57.9,29.96,NE,45,11.0,11.0,98,0.00,,,0.00,meteohub,2017-05-28 23:09:00,
2017-05-29 00:14:00,58.6,58.1,29.96,NE,45,11.0,11.0,98,0.00,,,0.00,meteohub,2017-05-28 23:14:00,
2017-05-29 00:19:00,58.6,58.1,29.96,NE,45,11.0,11.0,98,0.00,,,0.00,meteohub,2017-05-28 23:19:00,
2017-05-29 00:24:00,58.6,58.1,29.96,NE,45,11.0,11.0,98,0.00,,,0.00,meteohub,2017-05-28 23:24:00,
2017-05-29 00:30:00,58.6,58.1,29.96,NE,45,11.0,11.0,98,0.00,,,0.00,meteohub,2017-05-28 23:30:00,
2017-05-29 00:35:00,58.5,57.9,29.96,NE,45,11.0,11.0,98,0.00,,,0.00,meteohub,2017-05-28 23:35:00,
2017-05-29 00:40:00,58.3,57.7,29.99,NE,45,11.0,11.0,98,0.00,,,0.00,meteohub,2017-05-28 23:40:00,
2017-05-29 00:45:00,58.1,57.6,29.99,NE,45,11.0,11.0,98,0.00,,,0.00,meteohub,2017-05-28 23:45:00,
2017-05-29 00:50:00,58.1,57.6,29.99,NE,45,11.0,11.0,98,0.00,,,0.00,meteohub,2017-05-28 23:50:00,
2017-05-29 00:55:00,57.7,57.2,29.99,NE,45,11.0,11.0,98,0.00,,,0.00,meteohub,2017-05-28 23:55:00,
2017-05-29 01:00:00,57.6,57.0,29.99,NE,45,11.0,11.0,98,0.00,,,0.00,meteohub,2017-05-29 00:00:00,
2017-05-29 01:06:00,57.4,56.8,30.02,NE,45,11.0,11.0,98,0.00,,,0.00,meteohub,2017-05-29 00:06:00,
2017-05-29 01:11:00,57.2,56.7,30.02,NE,45,11.0,11.0,98,0.00,,,0.00,meteohub,2017-05-29 00:11:00,
2017-05-29 01:16:00,57.0,56.5,30.02,NE,45,11.0,11.0,98,0.00,,,0.00,meteohub,2017-05-29 00:16:00,
2017-05-29 01:21:00,56.8,56.3,29.99,NE,45,11.0,11.0,98,0.00,,,0.00,meteohub,2017-05-29 00:21:00,
2017-05-29 01:26:00,56.7,56.1,29.99,NE,45,11.0,11.0,98,0.00,,,0.00,meteohub,2017-05-29 00:26:00,
2017-05-29 01:31:00,56.5,55.9,29.99,NE,45,11.0,11.0,98,0.00,,,0.00,meteohub,2017-05-29 00:31:00,
2017-05-29 01:37:00,56.3,55.8,29.96,NE,45,11.0,11.0,98,0.00,,,0.00,meteohub,2017-05-29 00:37:00,
2017-05-29 01:42:00,56.1,55.6,29.96,NE,45,11.0,11.0,98,0.00,,,0.00,meteohub,2017-05-29 00:42:00,
2017-05-29 01:47:00,55.9,55.4,29.96,NE,45,11.0,11.0,98,0.00,,,0.00,meteohub,2017-05-29 00:47:00,
2017-05-29 01:52:00,55.8,55.2,29.96,NE,45,11.0,11.0,98,0.00,,,0.00,meteohub,2017-05-29 00:52:00,
2017-05-29 01:57:00,55.6,55.0,29.96,NE,45,11.0,11.0,98,0.00,,,0.00,meteohub,2017-05-29 00:57:00,
2017-05-29 02:02:00,55.4,54.9,29.96,NE,45,11.0,11.0,98,0.00,,,0.00,meteohub,2017-05-29 01:02:00,
2017-05-29 02:07:00,55.4,54.9,29.96,NE,45,11.0,11.0,98,0.00,,,0.00,meteohub,2017-05-29 01:07:00,
2017-05-29 02:12:00,55.2,54.7,29.96,NE,45,11.0,11.0,98,0.00,,,0.00,meteohub,2017-05-29 01:12:00,
2017-05-29 02:22:00,55.2,54.7,29.96,NE,45,11.0,11.0,98,0.00,,,0.00,meteohub,2017-05-29 01:22:00,
2017-05-29 02:27:00,55.2,54.7,29.96,NE,45,11.0,11.0,98,0.00,,,0.00,meteohub,2017-05-29 01:27:00,
2017-05-29 02:32:00,55.0,54.5,29.96,NE,45,11.0,11.0,98,0.00,,,0.00,meteohub,2017-05-29 01:32:00,
2017-05-29 02:37:00,54.9,54.3,29.93,NE,45,11.0,11.0,98,0.00,,,0.00,meteohub,2017-05-29 01:37:00,
2017-05-29 02:42:00,54.7,54.1,29.93,NE,45,11.0,11.0,98,0.00,,,0.00,meteohub,2017-05-29 01:42:00,
2017-05-29 02:47:00,54.7,54.1,29.93,NE,45,11.0,11.0,98,0.00,,,0.00,meteohub,2017-05-29 01:47:00,
2017-05-29 02:52:00,54.7,54.1,29.93,NE,45,11.0,11.0,98,0.00,,,0.00,meteohub,2017-05-29 01:52:00,
2017-05-29 02:57:00,54.5,54.0,29.93,NE,45,11.0,11.0,98,0.00,,,0.00,meteohub,2017-05-29 01:57:00,
2017-05-29 03:02:00,54.5,54.0,29.93,NE,45,11.0,11.0,98,0.00,,,0.00,meteohub,2017-05-29 02:02:00,
2017-05-29 03:07:00,54.5,54.0,29.90,NE,45,11.0,11.0,98,0.00,,,0.00,meteohub,2017-05-29 02:07:00,
2017-05-29 03:12:00,54.3,53.8,29.90,NE,45,11.0,11.0,98,0.00,,,0.00,meteohub,2017-05-29 02:12:00,
2017-05-29 03:17:00,54.3,53.8,29.90,NE,45,11.0,11.0,98,0.00,,,0.00,meteohub,2017-05-29 02:17:00,
2017-05-29 03:22:00,54.3,53.8,29.90,NE,45,11.0,11.0,98,0.00,,,0.00,meteohub,2017-05-29 02:22:00,
2017-05-29 03:27:00,54.1,53.6,29.90,NE,45,11.0,11.0,98,0.00,,,0.00,meteohub,2017-05-29 02:27:00,
2017-05-29 03:32:00,54.1,53.6,29.90,NE,45,11.0,11.0,98,0.00,,,0.00,meteohub,2017-05-29 02:32:00,
2017-05-29 03:37:00,54.0,53.4,29.90,NE,45,11.0,11.0,98,0.00,,,0.00,meteohub,2017-05-29 02:37:00,
2017-05-29 03:42:00,53.8,53.2,29.90,NE,45,11.0,11.0,98,0.00,,,0.00,meteohub,2017-05-29 02:42:00,
2017-05-29 03:47:00,53.8,53.2,29.90,NE,45,11.0,11.0,98,0.00,,,0.00,meteohub,2017-05-29 02:47:00,
2017-05-29 03:52:00,53.8,53.2,29.90,NE,45,11.0,11.0,98,0.00,,,0.00,meteohub,2017-05-29 02:52:00,
2017-05-29 03:57:00,53.8,53.2,29.90,NE,45,11.0,11.0,98,0.00,,,0.00,meteohub,2017-05-29 02:57:00,
2017-05-29 04:02:00,53.6,53.1,29.90,NE,45,11.0,11.0,98,0.00,,,0.00,meteohub,2017-05-29 03:02:00,
2017-05-29 04:07:00,53.4,52.9,29.87,NE,45,11.0,11.0,98,0.00,,,0.00,meteohub,2017-05-29 03:07:00,
2017-05-29 04:12:00,53.4,52.9,29.87,NE,45,11.0,11.0,98,0.00,,,0.00,meteohub,2017-05-29 03:12:00,
2017-05-29 04:22:00,53.2,52.7,29.87,NE,45,11.0,11.0,98,0.00,,,0.00,meteohub,2017-05-29 03:22:00,
2017-05-29 04:27:00,53.1,52.5,29.87,NE,45,11.0,11.0,98,0.00,,,0.00,meteohub,2017-05-29 03:27:00,
2017-05-29 04:32:00,53.1,52.5,29.87,NE,45,11.0,11.0,98,0.00,,,0.00,meteohub,2017-05-29 03:32:00,
2017-05-29 04:37:00,53.1,52.5,29.87,NE,45,11.0,11.0,98,0.00,,,0.00,meteohub,2017-05-29 03:37:00,
2017-05-29 04:42:00,53.1,52.5,29.87,NE,45,11.0,11.0,98,0.00,,,0.00,meteohub,2017-05-29 03:42:00,
2017-05-29 04:47:00,52.9,52.3,29.87,NE,45,11.0,11.0,98,0.00,,,0.00,meteohub,2017-05-29 03:47:00,
2017-05-29 04:52:00,52.9,52.3,29.87,NE,45,11.0,11.0,98,0.00,,,0.00,meteohub,2017-05-29 03:52:00,
2017-05-29 04:57:00,52.9,52.3,29.87,NE,45,11.0,11.0,98,0.00,,,0.00,meteohub,2017-05-29 03:57:00,
2017-05-29 05:02:00,52.9,52.3,29.87,NE,45,11.0,11.0,98,0.00,,,0.00,meteohub,2017-05-29 04:02:00,
2017-05-29 05:07:00,53.1,52.5,29.87,NE,45,11.0,11.0,98,0.00,,,0.00,meteohub,2017-05-29 04:07:00,
2017-05-29 05:12:00,53.1,52.5,29.87,NE,45,11.0,11.0,98,0.00,,,0.00,meteohub,2017-05-29 04:12:00,
2017-05-29 05:17:00,53.1,52.5,29.87,NE,45,11.0,11.0,98,0.00,,,0.00,meteohub,2017-05-29 04:17:00,
2017-05-29 05:22:00,53.1,52.5,29.87,NE,45,11.0,11.0,98,0.00,,,0.00,meteohub,2017-05-29 04:22:00,
2017-05-29 05:27:00,53.1,52.5,29.87,NE,45,11.0,11.0,98,0.00,,,0.00,meteohub,2017-05-29 04:27:00,
2017-05-29 05:32:00,53.1,52.5,29.87,NE,45,11.0,11.0,98,0.00,,,0.00,meteohub,2017-05-29 04:32:00,
2017-05-29 05:37:00,53.1,52.5,29.87,NE,45,11.0,11.0,98,0.00,,,0.00,meteohub,2017-05-29 04:37:00,
2017-05-29 05:42:00,53.2,52.7,29.87,NE,45,11.0,11.0,98,0.00,,,0.00,meteohub,2017-05-29 04:42:00,
2017-05-29 05:47:00,53.4,52.9,29.87,NE,45,11.0,11.0,98,0.00,,,0.00,meteohub,2017-05-29 04:47:00,
2017-05-29 05:52:00,53.4,52.9,29.87,NE,45,11.0,11.0,98,0.00,,,0.00,meteohub,2017-05-29 04:52:00,
2017-05-29 05:57:00,53.6,53.1,29.87,NE,45,11.0,11.0,98,0.00,,,0.00,meteohub,2017-05-29 04:57:00,
2017-05-29 06:02:00,53.8,53.2,29.87,NE,45,11.0,11.0,98,0.00,,,0.00,meteohub,2017-05-29 05:02:00,
2017-05-29 06:07:00,54.1,53.6,29.87,NE,45,11.0,11.0,98,0.00,,,0.00,meteohub,2017-05-29 05:07:00,
2017-05-29 06:12:00,54.3,53.8,29.87,NE,45,11.0,11.0,98,0.00,,,0.00,meteohub,2017-05-29 05:12:00,
2017-05-29 06:17:00,54.5,54.0,29.87,NE,45,11.0,11.0,98,0.00,,,0.00,meteohub,2017-05-29 05:17:00,
2017-05-29 06:22:00,54.7,54.1,29.87,NE,45,11.0,11.0,98,0.00,,,0.00,meteohub,2017-05-29 05:22:00,
2017-05-29 06:27:00,54.9,54.3,29.87,NE,45,11.0,11.0,98,0.00,,,0.00,meteohub,2017-05-29 05:27:00,
2017-05-29 06:32:00,55.2,54.7,29.87,NE,45,11.0,11.0,98,0.00,,,0.00,meteohub,2017-05-29 05:32:00,
2017-05-29 06:37:00,55.4,54.9,29.87,NE,45,11.0,11.0,98,0.00,,,0.00,meteohub,2017-05-29 05:37:00,
2017-05-29 06:42:00,55.6,55.0,29.87,NE,45,11.0,11.0,98,0.00,,,0.00,meteohub,2017-05-29 05:42:00,
2017-05-29 06:47:00,55.8,55.2,29.87,NE,45,11.0,11.0,98,0.00,,,0.00,meteohub,2017-05-29 05:47:00,
2017-05-29 06:52:00,55.9,55.4,29.87,NE,45,11.0,11.0,98,0.00,,,0.00,meteohub,2017-05-29 05:52:00,
2017-05-29 06:57:00,56.3,55.8,29.87,NE,45,11.0,11.0,98,0.00,,,0.00,meteohub,2017-05-29 05:57:00,
2017-05-29 07:02:00,56.5,55.9,29.87,NE,45,11.0,11.0,98,0.00,,,0.00,meteohub,2017-05-29 06:02:00,
2017-05-29 07:07:00,56.8,56.3,29.87,NE,45,11.0,11.0,98,0.00,,,0.00,meteohub,2017-05-29 06:07:00,
2017-05-29 07:12:00,57.2,56.7,29.87,NE,45,11.0,11.0,98,0.00,,,0.00,meteohub,2017-05-29 06:12:00,
2017-05-29 07:17:00,57.4,56.8,29.87,NE,45,11.0,11.0,98,0.00,,,0.00,meteohub,2017-05-29 06:17:00,
2017-05-29 07:22:00,57.4,56.8,29.90,NE,45,11.0,11.0,98,0.00,,,0.00,meteohub,2017-05-29 06:22:00,
2017-05-29 07:27:00,57.7,57.2,29.90,NE,45,11.0,11.0,98,0.00,,,0.00,meteohub,2017-05-29 06:27:00,
2017-05-29 07:32:00,58.1,57.6,29.90,NE,45,11.0,11.0,98,0.00,,,0.00,meteohub,2017-05-29 06:32:00,
2017-05-29 07:37:00,58.5,57.9,29.90,NE,45,11.0,11.0,98,0.00,,,0.00,meteohub,2017-05-29 06:37:00,
2017-05-29 07:42:00,58.8,58.3,29.90,NE,45,11.0,11.0,98,0.00,,,0.00,meteohub,2017-05-29 06:42:00,
2017-05-29 07:47:00,59.0,58.5,29.90,NE,45,11.0,11.0,98,0.00,,,0.00,meteohub,2017-05-29 06:47:00,
2017-05-29 07:52:00,59.2,58.6,29.90,NE,45,11.0,11.0,98,0.00,,,0.00,meteohub,2017-05-29 06:52:00,
2017-05-29 07:57:00,59.2,58.6,29.90,NE,45,11.0,11.0,98,0.00,,,0.00,meteohub,2017-05-29 06:57:00,
2017-05-29 08:02:00,59.0,58.5,29.90,NE,45,11.0,11.0,98,0.00,,,0.00,meteohub,2017-05-29 07:02:00,
2017-05-29 08:07:00,59.4,58.8,29.90,NE,45,11.0,11.0,98,0.00,,,0.00,meteohub,2017-05-29 07:07:00,
2017-05-29 08:12:00,59.9,59.4,29.90,NE,45,11.0,11.0,98,0.00,,,0.00,meteohub,2017-05-29 07:12:00,
2017-05-29 08:17:00,60.4,59.9,29.90,NE,45,11.0,11.0,98,0.00,,,0.00,meteohub,2017-05-29 07:17:00,
2017-05-29 08:22:00,61.2,60.6,29.90,NE,45,11.0,11.0,98,0.00,,,0.00,meteohub,2017-05-29 07:22:00,
2017-05-29 08:27:00,61.3,60.8,29.90,NE,45,11.0,11.0,98,0.00,,,0.00,meteohub,2017-05-29 07:27:00,
2017-05-29 08:32:00,62.2,61.7,29.90,NE,45,11.0,11.0,98,0.00,,,0.00,meteohub,2017-05-29 07:32:00,
2017-05-29 08:37:00,64.0,63.5,29.93,NE,45,11.0,11.0,98,0.00,,,0.00,meteohub,2017-05-29 07:37:00,
2017-05-29 08:42:00,64.6,63.7,29.93,NE,45,11.0,11.0,97,0.00,,,0.00,meteohub,2017-05-29 07:42:00,
2017-05-29 08:47:00,65.3,64.4,29.93,NE,45,11.0,11.0,97,0.00,,,0.00,meteohub,2017-05-29 07:47:00,
2017-05-29 08:52:00,65.5,64.2,29.93,NE,45,11.0,11.0,96,0.00,,,0.00,meteohub,2017-05-29 07:52:00,
2017-05-29 08:57:00,66.2,64.8,29.93,NE,45,11.0,11.0,95,0.00,,,0.00,meteohub,2017-05-29 07:57:00,
2017-05-29 09:02:00,65.8,63.7,29.93,NE,45,11.0,11.0,93,0.00,,,0.00,meteohub,2017-05-29 08:02:00,
2017-05-29 09:07:00,65.5,63.1,29.96,NE,45,11.0,11.0,92,0.00,,,0.00,meteohub,2017-05-29 08:07:00,
2017-05-29 09:12:00,66.0,63.7,29.96,NE,45,11.0,11.0,92,0.00,,,0.00,meteohub,2017-05-29 08:12:00,
2017-05-29 09:17:00,66.2,63.5,29.96,NE,45,11.0,11.0,91,0.00,,,0.00,meteohub,2017-05-29 08:17:00,
2017-05-29 09:22:00,66.7,64.0,29.96,NE,45,11.0,11.0,91,0.00,,,0.00,meteohub,2017-05-29 08:22:00,
2017-05-29 09:27:00,67.5,64.8,29.96,NE,45,11.0,11.0,91,0.00,,,0.00,meteohub,2017-05-29 08:27:00,
2017-05-29 09:32:00,67.3,64.2,29.96,NE,45,11.0,11.0,90,0.00,,,0.00,meteohub,2017-05-29 08:32:00,
2017-05-29 09:37:00,66.9,63.5,29.96,NE,45,11.0,11.0,89,0.00,,,0.00,meteohub,2017-05-29 08:37:00,
2017-05-29 09:42:00,66.9,63.5,29.96,NE,45,11.0,11.0,89,0.00,,,0.00,meteohub,2017-05-29 08:42:00,
2017-05-29 09:47:00,66.6,63.0,29.96,NE,45,11.0,11.0,88,0.00,,,0.00,meteohub,2017-05-29 08:47:00,
2017-05-29 09:52:00,66.6,63.1,29.93,NE,45,11.0,11.0,89,0.00,,,0.00,meteohub,2017-05-29 08:52:00,
2017-05-29 09:57:00,66.0,62.4,29.93,NE,45,11.0,11.0,88,0.00,,,0.00,meteohub,2017-05-29 08:57:00,
2017-05-29 10:02:00,65.7,62.1,29.93,NE,45,11.0,11.0,88,0.00,,,0.00,meteohub,2017-05-29 09:02:00,
2017-05-29 10:07:00,65.5,61.9,29.96,NE,45,11.0,11.0,88,0.00,,,0.00,meteohub,2017-05-29 09:07:00,
2017-05-29 10:12:00,65.3,62.2,29.96,NE,45,11.0,11.0,90,0.00,,,0.00,meteohub,2017-05-29 09:12:00,
2017-05-29 10:17:00,65.1,62.1,29.96,NE,45,11.0,11.0,90,0.00,,,0.00,meteohub,2017-05-29 09:17:00,
2017-05-29 10:22:00,65.1,62.1,29.96,NE,45,11.0,11.0,90,0.00,,,0.00,meteohub,2017-05-29 09:22:00,
2017-05-29 10:27:00,65.7,63.0,29.93,NE,45,11.0,11.0,91,0.00,,,0.00,meteohub,2017-05-29 09:27:00,
2017-05-29 10:32:00,66.4,63.7,29.93,NE,45,11.0,11.0,91,0.00,,,0.00,meteohub,2017-05-29 09:32:00,
2017-05-29 10:37:00,66.6,63.9,29.93,NE,45,11.0,11.0,91,0.00,,,0.00,meteohub,2017-05-29 09:37:00,
2017-05-29 10:42:00,66.4,63.3,29.93,NE,45,11.0,11.0,90,0.00,,,0.00,meteohub,2017-05-29 09:42:00,
2017-05-29 10:47:00,66.2,63.5,29.93,NE,45,11.0,11.0,91,0.00,,,0.00,meteohub,2017-05-29 09:47:00,
2017-05-29 10:52:00,66.2,63.5,29.93,NE,45,11.0,11.0,91,0.00,,,0.00,meteohub,2017-05-29 09:52:00,
2017-05-29 10:57:00,67.1,64.4,29.93,NE,45,11.0,11.0,91,0.00,,,0.00,meteohub,2017-05-29 09:57:00,
2017-05-29 11:02:00,67.6,64.6,29.93,NE,45,11.0,11.0,90,0.00,,,0.00,meteohub,2017-05-29 10:02:00,
2017-05-29 11:07:00,68.2,65.1,29.93,NE,45,11.0,11.0,90,0.00,,,0.00,meteohub,2017-05-29 10:07:00,
2017-05-29 11:12:00,68.7,65.7,29.93,NE,45,11.0,11.0,90,0.00,,,0.00,meteohub,2017-05-29 10:12:00,
2017-05-29 11:17:00,68.9,65.5,29.93,NE,45,11.0,11.0,89,0.00,,,0.00,meteohub,2017-05-29 10:17:00,
2017-05-29 11:22:00,69.4,65.7,29.93,NE,45,11.0,11.0,88,0.00,,,0.00,meteohub,2017-05-29 10:22:00,
2017-05-29 11:27:00,70.2,66.0,29.93,NE,45,11.0,11.0,87,0.00,,,0.00,meteohub,2017-05-29 10:27:00,
2017-05-29 11:32:00,71.8,67.1,29.93,NE,45,11.0,11.0,85,0.00,,,0.00,meteohub,2017-05-29 10:32:00,
2017-05-29 11:37:00,72.1,67.1,29.96,NE,45,11.0,11.0,84,0.00,,,0.00,meteohub,2017-05-29 10:37:00,
2017-05-29 11:42:00,72.3,66.9,29.96,NE,45,11.0,11.0,83,0.00,,,0.00,meteohub,2017-05-29 10:42:00,
2017-05-29 11:47:00,72.9,67.5,29.96,NE,45,11.0,11.0,83,0.00,,,0.00,meteohub,2017-05-29 10:47:00,
2017-05-29 11:52:00,74.3,68.0,29.96,NE,45,11.0,11.0,81,0.00,,,0.00,meteohub,2017-05-29 10:52:00,
2017-05-29 11:57:00,74.1,66.7,29.96,NE,45,11.0,11.0,78,0.00,,,0.00,meteohub,2017-05-29 10:57:00,
2017-05-29 12:02:00,73.4,66.2,29.96,NE,45,11.0,11.0,78,0.00,,,0.00,meteohub,2017-05-29 11:02:00,
2017-05-29 12:04:00,73.2,66.0,29.96,NE,45,11.0,11.0,78,0.00,,,0.00,meteohub,2017-05-29 11:04:00,
2017-05-29 12:10:00,72.9,65.7,29.96,NE,45,11.0,11.0,78,0.00,,,0.00,meteohub,2017-05-29 11:10:00,
2017-05-29 12:15:00,72.5,64.9,29.96,NE,45,11.0,11.0,77,0.00,,,0.00,meteohub,2017-05-29 11:15:00,
2017-05-29 12:20:00,72.1,64.9,29.96,NE,45,11.0,11.0,78,0.00,,,0.00,meteohub,2017-05-29 11:20:00,
2017-05-29 12:25:00,71.8,64.6,29.96,NE,45,11.0,11.0,78,0.00,,,0.00,meteohub,2017-05-29 11:25:00,
2017-05-29 12:30:00,71.6,65.1,29.96,NE,45,11.0,11.0,80,0.00,,,0.00,meteohub,2017-05-29 11:30:00,
2017-05-29 12:35:00,71.1,64.6,29.96,NE,45,11.0,11.0,80,0.00,,,0.00,meteohub,2017-05-29 11:35:00,
2017-05-29 12:41:00,70.5,64.4,29.96,NE,45,11.0,11.0,81,0.00,,,0.00,meteohub,2017-05-29 11:41:00,
2017-05-29 12:46:00,70.2,64.0,29.96,NE,45,11.0,11.0,81,0.00,,,0.00,meteohub,2017-05-29 11:46:00,
2017-05-29 12:51:00,69.6,63.9,29.96,NE,45,11.0,11.0,82,0.00,,,0.00,meteohub,2017-05-29 11:51:00,
2017-05-29 12:56:00,69.1,63.7,29.96,NE,45,11.0,11.0,83,0.00,,,0.00,meteohub,2017-05-29 11:56:00,
2017-05-29 13:01:00,68.9,63.9,29.96,NE,45,11.0,11.0,84,0.00,,,0.00,meteohub,2017-05-29 12:01:00,
2017-05-29 13:06:00,68.9,64.6,29.96,NE,45,11.0,11.0,86,0.00,,,0.00,meteohub,2017-05-29 12:06:00,
2017-05-29 13:11:00,68.9,64.6,29.96,NE,45,11.0,11.0,86,0.00,,,0.00,meteohub,2017-05-29 12:11:00,
2017-05-29 13:17:00,68.9,64.2,29.96,NE,45,11.0,11.0,85,0.00,,,0.00,meteohub,2017-05-29 12:17:00,
2017-05-29 13:22:00,69.6,65.3,29.96,NE,45,11.0,11.0,86,0.00,,,0.00,meteohub,2017-05-29 12:22:00,
2017-05-29 13:27:00,69.8,64.8,29.93,NE,45,11.0,11.0,84,0.00,,,0.00,meteohub,2017-05-29 12:27:00,
2017-05-29 13:32:00,69.6,64.2,29.93,NE,45,11.0,11.0,83,0.00,,,0.00,meteohub,2017-05-29 12:32:00,
2017-05-29 13:37:00,69.8,64.4,29.93,NE,45,11.0,11.0,83,0.00,,,0.00,meteohub,2017-05-29 12:37:00,
2017-05-29 13:42:00,71.1,66.4,29.93,NE,45,11.0,11.0,85,0.00,,,0.00,meteohub,2017-05-29 12:42:00,
2017-05-29 13:47:00,71.1,65.7,29.93,NE,45,11.0,11.0,83,0.00,,,0.00,meteohub,2017-05-29 12:47:00,
2017-05-29 13:52:00,70.7,65.3,29.93,NE,45,11.0,11.0,83,0.00,,,0.00,meteohub,2017-05-29 12:52:00,
2017-05-29 13:57:00,70.3,64.6,29.93,NE,45,11.0,11.0,82,0.00,,,0.00,meteohub,2017-05-29 12:57:00,
2017-05-29 14:02:00,70.0,64.6,29.93,NE,45,11.0,11.0,83,0.00,,,0.00,meteohub,2017-05-29 13:02:00,
2017-05-29 14:06:00,69.6,64.2,29.93,NE,45,11.0,11.0,83,0.00,,,0.00,meteohub,2017-05-29 13:06:00,
2017-05-29 14:11:00,69.6,64.6,29.93,NE,45,11.0,11.0,84,0.00,,,0.00,meteohub,2017-05-29 13:11:00,
2017-05-29 14:17:00,69.4,64.8,29.93,NE,45,11.0,11.0,85,0.00,,,0.00,meteohub,2017-05-29 13:17:00,
2017-05-29 14:22:00,69.4,65.1,29.93,NE,45,11.0,11.0,86,0.00,,,0.00,meteohub,2017-05-29 13:22:00,
2017-05-29 14:27:00,69.4,65.1,29.93,NE,45,11.0,11.0,86,0.00,,,0.00,meteohub,2017-05-29 13:27:00,
2017-05-29 14:32:00,69.4,65.1,29.93,NE,45,11.0,11.0,86,0.00,,,0.00,meteohub,2017-05-29 13:32:00,
2017-05-29 14:37:00,69.3,64.9,29.93,NE,45,11.0,11.0,86,0.00,,,0.00,meteohub,2017-05-29 13:37:00,
2017-05-29 14:42:00,69.4,65.1,29.90,NE,45,11.0,11.0,86,0.00,,,0.00,meteohub,2017-05-29 13:42:00,
2017-05-29 14:47:00,70.2,65.8,29.90,NE,45,11.0,11.0,86,0.00,,,0.00,meteohub,2017-05-29 13:47:00,
2017-05-29 14:52:00,70.9,66.6,29.90,NE,45,11.0,11.0,86,0.00,,,0.00,meteohub,2017-05-29 13:52:00,
2017-05-29 14:57:00,71.6,67.1,29.93,NE,45,11.0,11.0,86,0.00,,,0.00,meteohub,2017-05-29 13:57:00,
2017-05-29 15:02:00,71.4,66.7,29.93,NE,45,11.0,11.0,85,0.00,,,0.00,meteohub,2017-05-29 14:02:00,
2017-05-29 15:07:00,71.1,66.4,29.93,NE,45,11.0,11.0,85,0.00,,,0.00,meteohub,2017-05-29 14:07:00,
2017-05-29 15:12:00,70.7,65.7,29.93,NE,45,11.0,11.0,84,0.00,,,0.00,meteohub,2017-05-29 14:12:00,
2017-05-29 15:17:00,70.5,65.8,29.93,NE,45,11.0,11.0,85,0.00,,,0.00,meteohub,2017-05-29 14:17:00,
2017-05-29 15:22:00,70.2,65.5,29.93,NE,45,11.0,11.0,85,0.00,,,0.00,meteohub,2017-05-29 14:22:00,
2017-05-29 15:27:00,70.0,65.7,29.90,NE,45,11.0,11.0,86,0.00,,,0.00,meteohub,2017-05-29 14:27:00,
2017-05-29 15:32:00,69.8,65.5,29.90,NE,45,11.0,11.0,86,0.00,,,0.00,meteohub,2017-05-29 14:32:00,
2017-05-29 15:37:00,69.3,65.3,29.90,NE,45,11.0,11.0,87,0.00,,,0.00,meteohub,2017-05-29 14:37:00,
2017-05-29 15:42:00,69.1,65.3,29.90,NE,45,11.0,11.0,88,0.00,,,0.00,meteohub,2017-05-29 14:42:00,
2017-05-29 15:47:00,69.1,65.3,29.90,NE,45,11.0,11.0,88,0.00,,,0.00,meteohub,2017-05-29 14:47:00,
2017-05-29 15:52:00,69.1,65.7,29.90,NE,45,11.0,11.0,89,0.00,,,0.00,meteohub,2017-05-29 14:52:00,
2017-05-29 15:57:00,68.9,65.1,29.90,NE,45,11.0,11.0,88,0.00,,,0.00,meteohub,2017-05-29 14:57:00,
2017-05-29 16:02:00,68.5,65.1,29.90,NE,45,11.0,11.0,89,0.00,,,0.00,meteohub,2017-05-29 15:02:00,
2017-05-29 16:07:00,68.2,64.8,29.90,NE,45,11.0,11.0,89,0.00,,,0.00,meteohub,2017-05-29 15:07:00,
2017-05-29 16:12:00,68.0,64.6,29.90,NE,45,11.0,11.0,89,0.00,,,0.00,meteohub,2017-05-29 15:12:00,
2017-05-29 16:17:00,67.6,64.6,29.90,NE,45,11.0,11.0,90,0.00,,,0.00,meteohub,2017-05-29 15:17:00,
2017-05-29 16:22:00,67.3,64.2,29.90,NE,45,11.0,11.0,90,0.00,,,0.00,meteohub,2017-05-29 15:22:00,
2017-05-29 16:27:00,67.1,63.7,29.90,NE,45,11.0,11.0,89,0.00,,,0.00,meteohub,2017-05-29 15:27:00,
2017-05-29 16:32:00,66.9,63.5,29.90,NE,45,11.0,11.0,89,0.00,,,0.00,meteohub,2017-05-29 15:32:00,
2017-05-29 16:37:00,66.9,63.9,29.90,NE,45,11.0,11.0,90,0.00,,,0.00,meteohub,2017-05-29 15:37:00,
2017-05-29 16:42:00,66.9,63.5,29.90,NE,45,11.0,11.0,89,0.00,,,0.00,meteohub,2017-05-29 15:42:00,
2017-05-29 16:52:00,66.6,63.5,29.90,NE,45,11.0,11.0,90,0.00,,,0.00,meteohub,2017-05-29 15:52:00,
2017-05-29 16:57:00,66.6,63.5,29.90,NE,45,11.0,11.0,90,0.00,,,0.00,meteohub,2017-05-29 15:57:00,
2017-05-29 17:02:00,66.6,63.5,29.90,NE,45,11.0,11.0,90,0.00,,,0.00,meteohub,2017-05-29 16:02:00,
2017-05-29 17:07:00,66.6,63.5,29.90,NE,45,11.0,11.0,90,0.00,,,0.00,meteohub,2017-05-29 16:07:00,
2017-05-29 17:12:00,66.2,63.1,29.90,NE,45,11.0,11.0,90,0.00,,,0.00,meteohub,2017-05-29 16:12:00,
2017-05-29 17:17:00,66.0,63.0,29.90,NE,45,11.0,11.0,90,0.00,,,0.00,meteohub,2017-05-29 16:17:00,
2017-05-29 17:22:00,65.8,63.1,29.90,NE,45,11.0,11.0,91,0.00,,,0.00,meteohub,2017-05-29 16:22:00,
2017-05-29 17:27:00,65.7,63.0,29.90,NE,45,11.0,11.0,91,0.00,,,0.00,meteohub,2017-05-29 16:27:00,
2017-05-29 17:32:00,65.5,62.8,29.90,NE,45,11.0,11.0,91,0.00,,,0.00,meteohub,2017-05-29 16:32:00,
2017-05-29 17:37:00,65.3,62.6,29.90,NE,45,11.0,11.0,91,0.00,,,0.00,meteohub,2017-05-29 16:37:00,
2017-05-29 17:42:00,65.1,62.4,29.90,NE,45,11.0,11.0,91,0.00,,,0.00,meteohub,2017-05-29 16:42:00,
2017-05-29 17:47:00,64.9,62.6,29.90,NE,45,11.0,11.0,92,0.00,,,0.00,meteohub,2017-05-29 16:47:00,
2017-05-29 17:52:00,64.9,62.6,29.90,NE,45,11.0,11.0,92,0.00,,,0.00,meteohub,2017-05-29 16:52:00,
2017-05-29 17:57:00,65.1,62.8,29.90,NE,45,11.0,11.0,92,0.00,,,0.00,meteohub,2017-05-29 16:57:00,